Time,TemperatureF,DewpointF,PressureIn,WindDirection,WindDirectionDegrees,WindSpeedMPH,WindSpeedGustMPH,Humidity,HourlyPrecipIn,Conditions,Clouds,dailyrainin,SolarRadiationWatts/m^2,SoftwareType,DateUTC
2013-08-19 00:02:00,68.0,68.0,-100.00,SSE,155,1.0,2.0,100,0.00,,,0.00,0.000000,,2013-08-19 05:02:00,
2013-08-19 00:42:00,68.0,68.0,-100.00,East,93,0.0,2.0,100,0.00,,,0.00,0.000000,,2013-08-19 05:42:00,
2013-08-19 00:52:00,68.0,68.0,-100.00,East,93,0.0,2.0,100,0.00,,,0.00,0.000000,,2013-08-19 05:52:00,
2013-08-19 01:02:00,68.0,68.0,-100.00,East,93,0.0,2.0,100,0.00,,,0.00,0.000000,,2013-08-19 06:02:00,
2013-08-19 01:42:00,68.0,68.0,-100.00,SE,134,1.0,3.0,100,0.00,,,-99.99,0.000000,,2013-08-19 06:42:00,
2013-08-19 01:52:00,68.0,68.0,-100.00,SE,134,1.0,3.0,100,0.00,,,-99.99,0.000000,,2013-08-19 06:52:00,
2013-08-19 02:01:00,68.0,68.0,-100.00,SE,134,1.0,3.0,100,0.00,,,-99.99,0.000000,,2013-08-19 07:01:00,
2013-08-19 02:42:00,68.0,68.0,-100.00,ESE,109,0.0,4.0,100,0.00,,,0.00,0.000000,,2013-08-19 07:42:00,
2013-08-19 02:52:00,68.0,68.0,-100.00,ESE,109,0.0,4.0,100,0.00,,,0.00,0.000000,,2013-08-19 07:52:00,
2013-08-19 03:02:00,68.0,68.0,-100.00,ESE,109,0.0,4.0,100,0.00,,,0.00,0.000000,,2013-08-19 08:02:00,
2013-08-19 03:42:00,67.0,67.0,-100.00,East,87,0.0,2.0,100,0.00,,,0.00,0.000000,,2013-08-19 08:42:00,
2013-08-19 03:52:00,67.0,67.0,-100.00,East,87,0.0,2.0,100,0.00,,,0.00,0.000000,,2013-08-19 08:52:00,
2013-08-19 04:01:00,67.0,67.0,-100.00,East,87,0.0,2.0,100,0.00,,,0.00,0.000000,,2013-08-19 09:01:00,
2013-08-19 04:43:00,66.0,66.0,-100.00,SE,135,0.0,2.0,100,0.00,,,0.00,0.000000,,2013-08-19 09:43:00,
2013-08-19 04:53:00,66.0,66.0,-100.00,SE,135,0.0,2.0,100,0.00,,,0.00,0.000000,,2013-08-19 09:53:00,
2013-08-19 05:03:00,66.0,66.0,-100.00,SE,135,0.0,2.0,100,0.00,,,0.00,0.000000,,2013-08-19 10:03:00,
2013-08-19 05:43:00,65.0,65.0,-100.00,East,87,0.0,0.0,100,0.00,,,0.00,0.000000,,2013-08-19 10:43:00,
2013-08-19 05:52:00,65.0,65.0,-100.00,East,87,0.0,0.0,100,0.00,,,0.00,0.000000,,2013-08-19 10:52:00,
2013-08-19 06:02:00,65.0,65.0,-100.00,East,87,0.0,0.0,100,0.00,,,0.00,0.000000,,2013-08-19 11:02:00,
2013-08-19 06:45:00,65.0,65.0,-100.00,SSW,203,0.0,0.0,100,0.00,,,0.00,0.000000,,2013-08-19 11:45:00,
2013-08-19 06:52:00,65.0,65.0,-100.00,SSW,203,0.0,0.0,100,0.00,,,0.00,0.000000,,2013-08-19 11:52:00,
2013-08-19 07:01:00,65.0,65.0,-100.00,SSW,203,0.0,0.0,100,0.00,,,0.00,0.000000,,2013-08-19 12:01:00,
2013-08-19 07:42:00,67.0,67.0,-100.00,East,80,0.0,0.0,100,0.00,,,0.00,12.000000,,2013-08-19 12:42:00,
2013-08-19 07:52:00,67.0,67.0,-100.00,East,80,0.0,0.0,100,0.00,,,0.00,12.000000,,2013-08-19 12:52:00,
2013-08-19 08:03:00,67.0,67.0,-100.00,East,80,0.0,0.0,100,0.00,,,0.00,12.000000,,2013-08-19 13:03:00,
2013-08-19 08:42:00,69.0,69.0,-100.00,ESE,116,1.0,2.0,100,0.01,,,0.01,76.000000,,2013-08-19 13:42:00,
2013-08-19 08:52:00,69.0,69.0,-100.00,ESE,116,1.0,2.0,100,0.01,,,0.01,76.000000,,2013-08-19 13:52:00,
2013-08-19 09:02:00,69.0,69.0,-100.00,ESE,116,1.0,2.0,100,0.01,,,0.01,76.000000,,2013-08-19 14:02:00,
2013-08-19 09:42:00,73.0,73.0,-100.00,NNE,18,2.0,4.0,99,0.00,,,0.01,193.000000,,2013-08-19 14:42:00,
2013-08-19 09:52:00,73.0,73.0,-100.00,NNE,18,2.0,4.0,99,0.00,,,0.01,193.000000,,2013-08-19 14:52:00,
2013-08-19 10:01:00,73.0,73.0,-100.00,NNE,18,2.0,4.0,99,0.00,,,0.01,193.000000,,2013-08-19 15:01:00,
2013-08-19 10:44:00,75.0,68.0,-100.00,NNE,15,3.0,6.0,80,0.00,,,0.01,299.000000,,2013-08-19 15:44:00,
2013-08-19 10:54:00,75.0,68.0,-100.00,NNE,15,3.0,6.0,80,0.00,,,0.01,299.000000,,2013-08-19 15:54:00,
2013-08-19 11:05:00,75.0,68.0,-100.00,NNE,15,3.0,6.0,80,0.00,,,0.01,299.000000,,2013-08-19 16:05:00,
2013-08-19 11:47:00,80.0,70.0,-100.00,NE,50,2.0,7.0,71,0.00,,,0.01,504.000000,,2013-08-19 16:47:00,
2013-08-19 12:04:00,80.0,70.0,-100.00,NE,50,2.0,7.0,71,0.00,,,0.01,504.000000,,2013-08-19 17:04:00,
2013-08-19 12:49:00,81.0,70.0,-100.00,NE,38,3.0,7.0,69,0.00,,,0.01,645.000000,,2013-08-19 17:49:00,
2013-08-19 12:57:00,81.0,70.0,-100.00,NE,38,3.0,7.0,69,0.00,,,0.01,645.000000,,2013-08-19 17:57:00,
2013-08-19 13:05:00,81.0,70.0,-100.00,NE,38,3.0,7.0,69,0.00,,,0.01,645.000000,,2013-08-19 18:05:00,
2013-08-19 13:06:00,84.0,72.0,-100.00,North,355,3.0,7.0,67,0.00,,,0.01,659.000000,,2013-08-19 18:06:00,
2013-08-19 13:50:00,-999.0,-99.9,-100.00,North,355,3.0,7.0,67,0.00,,,0.01,659.000000,,2013-08-19 18:50:00,
2013-08-19 14:00:00,-999.0,-99.9,-100.00,North,355,3.0,7.0,67,0.00,,,0.01,659.000000,,2013-08-19 19:00:00,
2013-08-19 14:06:00,82.0,68.0,-100.00,ESE,118,1.0,7.0,63,0.00,,,0.01,385.000000,,2013-08-19 19:06:00,
2013-08-19 14:30:00,-999.0,-99.9,-100.00,ESE,118,1.0,7.0,63,0.00,,,0.01,385.000000,,2013-08-19 19:30:00,
2013-08-19 14:50:00,82.0,68.0,-100.00,ESE,118,1.0,7.0,63,0.00,,,0.01,385.000000,,2013-08-19 19:50:00,
2013-08-19 14:59:00,82.0,68.0,-100.00,ESE,118,1.0,7.0,63,0.00,,,0.01,385.000000,,2013-08-19 19:59:00,
2013-08-19 15:06:00,85.0,70.0,-100.00,East,86,2.0,5.0,61,0.00,,,0.01,496.000000,,2013-08-19 20:06:00,
2013-08-19 15:50:00,85.0,70.0,-100.00,East,86,2.0,5.0,61,0.00,,,0.01,496.000000,,2013-08-19 20:50:00,
2013-08-19 16:00:00,-999.0,-99.9,-100.00,East,86,2.0,5.0,-999,-99.99,,,-99.99,496.000000,,2013-08-19 21:00:00,
2013-08-19 16:06:00,88.0,71.0,-100.00,NNE,24,2.0,5.0,57,0.00,,,0.01,567.000000,,2013-08-19 21:06:00,
2013-08-19 16:46:00,88.0,71.0,-100.00,NNE,24,2.0,5.0,57,0.00,,,0.01,567.000000,,2013-08-19 21:46:00,
2013-08-19 16:55:00,88.0,71.0,-100.00,NNE,24,2.0,5.0,57,0.00,,,0.01,567.000000,,2013-08-19 21:55:00,
2013-08-19 17:44:00,86.0,70.0,-100.00,ESE,117,2.0,5.0,59,-99.99,,,0.01,456.000000,,2013-08-19 22:44:00,
2013-08-19 17:55:00,86.0,70.0,-100.00,ESE,117,2.0,5.0,59,-99.99,,,0.01,456.000000,,2013-08-19 22:55:00,
2013-08-19 18:05:00,86.0,70.0,-100.00,ESE,117,2.0,5.0,59,-99.99,,,0.01,456.000000,,2013-08-19 23:05:00,
2013-08-19 18:48:00,80.0,68.0,-100.00,NE,46,1.0,3.0,67,0.00,,,0.01,153.000000,,2013-08-19 23:48:00,
2013-08-19 18:55:00,80.0,68.0,-100.00,NE,46,1.0,3.0,67,0.00,,,0.01,153.000000,,2013-08-19 23:55:00,
2013-08-19 19:02:00,80.0,68.0,-100.00,NE,46,1.0,3.0,67,0.00,,,0.01,153.000000,,2013-08-20 00:02:00,
2013-08-19 19:42:00,76.0,68.0,-100.00,SSE,159,1.0,2.0,77,0.00,,,0.01,29.000000,,2013-08-20 00:42:00,
2013-08-19 19:52:00,76.0,68.0,-100.00,SSE,159,1.0,2.0,77,0.00,,,0.01,29.000000,,2013-08-20 00:52:00,
2013-08-19 20:03:00,76.0,68.0,-100.00,SSE,159,1.0,2.0,77,0.00,,,0.01,29.000000,,2013-08-20 01:03:00,
2013-08-19 20:42:00,73.0,69.0,-100.00,SSE,159,1.0,2.0,87,0.00,,,0.01,4.000000,,2013-08-20 01:42:00,
2013-08-19 20:52:00,73.0,69.0,-100.00,SSE,159,1.0,2.0,87,0.00,,,0.01,4.000000,,2013-08-20 01:52:00,
2013-08-19 21:02:00,73.0,69.0,-100.00,SSE,159,1.0,2.0,87,0.00,,,0.01,4.000000,,2013-08-20 02:02:00,
2013-08-19 21:42:00,71.0,70.0,-100.00,ESE,118,0.0,1.0,98,0.00,,,0.01,0.000000,,2013-08-20 02:42:00,
2013-08-19 21:52:00,71.0,70.0,-100.00,ESE,118,0.0,1.0,98,0.00,,,0.01,0.000000,,2013-08-20 02:52:00,
2013-08-19 22:02:00,71.0,70.0,-100.00,ESE,118,0.0,1.0,98,0.00,,,0.01,0.000000,,2013-08-20 03:02:00,
2013-08-19 22:43:00,70.0,70.0,-100.00,SE,145,0.0,0.0,100,0.00,,,0.01,0.000000,,2013-08-20 03:43:00,
2013-08-19 22:54:00,70.0,70.0,-100.00,SE,145,0.0,0.0,100,0.00,,,0.01,0.000000,,2013-08-20 03:54:00,
2013-08-19 23:03:00,70.0,70.0,-100.00,SE,145,0.0,0.0,100,0.00,,,0.01,0.000000,,2013-08-20 04:03:00,
2013-08-19 23:43:00,69.0,69.0,-100.00,South,191,0.0,1.0,100,0.00,,,0.01,0.000000,,2013-08-20 04:43:00,
2013-08-19 23:53:00,69.0,69.0,-100.00,South,191,0.0,1.0,100,0.00,,,0.01,0.000000,,2013-08-20 04:53:00,